Time;durP1;ratioP1;P1;durP2;ratioP2;P2;SDS_P1;SDS_P2;PMS_P1;PMS_P2;Temp;Humidity;BMP_temperature;BMP_pressure;BME280_temperature;BME280_humidity;BME280_pressure;Samples;Min_cycle;Max_cycle;Signal;HPM_P1;HPM_P2
2020/12/10 00:00:30;;;;;;;31.55;16.98;;;;;;;5.67;100.00;94377.50;5108444;28;20085;-69
2020/12/10 00:02:58;;;;;;;29.48;15.75;;;;;;;5.51;100.00;94368.47;5106433;28;20038;-70
2020/12/10 00:05:24;;;;;;;25.13;14.32;;;;;;;5.41;100.00;94367.38;5109053;28;20040;-71
2020/12/10 00:07:51;;;;;;;23.67;14.45;;;;;;;5.38;100.00;94378.88;5109299;28;20031;-71
2020/12/10 00:10:17;;;;;;;23.42;14.13;;;;;;;5.40;100.00;94382.03;5109212;28;20058;-70
2020/12/10 00:12:44;;;;;;;20.25;13.15;;;;;;;5.38;100.00;94391.78;5109261;28;20044;-69
2020/12/10 00:15:12;;;;;;;25.13;13.60;;;;;;;5.35;100.00;94384.50;5104366;28;20043;-70
2020/12/10 00:17:39;;;;;;;25.13;15.38;;;;;;;5.35;100.00;94381.91;5108843;28;20050;-71
2020/12/10 00:20:07;;;;;;;25.55;13.85;;;;;;;5.47;100.00;94372.47;5107241;28;20044;-71
2020/12/10 00:22:34;;;;;;;23.45;12.88;;;;;;;5.46;100.00;94370.91;5108267;28;20028;-69
2020/12/10 00:25:03;;;;;;;22.33;14.23;;;;;;;5.27;100.00;94353.75;5107750;28;20039;-71
2020/12/10 00:27:29;;;;;;;22.05;13.38;;;;;;;5.46;100.00;94370.09;5107864;28;20447;-69
2020/12/10 00:29:59;;;;;;;20.40;12.55;;;;;;;5.61;100.00;94362.03;5089767;28;20052;-70
2020/12/10 00:32:26;;;;;;;21.65;12.18;;;;;;;5.55;100.00;94367.03;5105736;28;20389;-70
2020/12/10 00:34:55;;;;;;;17.95;11.85;;;;;;;5.52;100.00;94362.28;5108312;28;20101;-70
2020/12/10 00:37:26;;;;;;;18.60;11.60;;;;;;;5.60;100.00;94344.94;5108084;28;20039;-70
2020/12/10 00:39:53;;;;;;;18.15;11.07;;;;;;;5.65;100.00;94358.81;5090700;28;20054;-71
2020/12/10 00:42:19;;;;;;;21.35;12.70;;;;;;;5.45;100.00;94346.06;5108783;28;20119;-71
2020/12/10 00:44:46;;;;;;;14.52;10.48;;;;;;;5.48;100.00;94347.44;5093070;28;20082;-70
2020/12/10 00:47:16;;;;;;;18.85;10.73;;;;;;;5.57;100.00;94360.88;5108105;28;20035;-71
2020/12/10 00:49:44;;;;;;;21.45;12.25;;;;;;;5.50;100.00;94351.38;5108281;28;20089;-71
2020/12/10 00:52:12;;;;;;;22.02;13.27;;;;;;;5.41;100.00;94342.31;5103533;28;20089;-71
2020/12/10 00:54:39;;;;;;;20.10;12.45;;;;;;;5.46;100.00;94344.28;5089437;28;20047;-70
2020/12/10 00:57:12;;;;;;;22.55;13.23;;;;;;;5.46;100.00;94339.91;5106541;28;20126;-70
2020/12/10 00:59:39;;;;;;;24.63;13.43;;;;;;;5.42;100.00;94333.59;5107249;28;20492;-71
2020/12/10 01:02:07;;;;;;;19.52;12.27;;;;;;;5.44;100.00;94336.75;5107519;28;20043;-70
2020/12/10 01:04:34;;;;;;;22.90;13.18;;;;;;;5.35;100.00;94338.78;5106624;28;20554;-70
2020/12/10 01:07:01;;;;;;;24.10;13.77;;;;;;;5.27;100.00;94340.81;5107466;28;20036;-71
2020/12/10 01:09:27;;;;;;;22.63;13.60;;;;;;;5.37;100.00;94343.75;5094353;28;20043;-71
2020/12/10 01:11:54;;;;;;;25.83;14.60;;;;;;;5.32;100.00;94334.03;5107337;28;20040;-70
2020/12/10 01:14:21;;;;;;;25.48;14.93;;;;;;;5.39;100.00;94333.22;5107538;28;20500;-70
2020/12/10 01:16:48;;;;;;;26.45;14.27;;;;;;;5.39;100.00;94339.16;5107027;28;20038;-70
2020/12/10 01:19:15;;;;;;;28.33;16.25;;;;;;;5.39;100.00;94338.38;5107620;28;20035;-70
2020/12/10 01:21:42;;;;;;;26.63;16.17;;;;;;;5.44;100.00;94331.56;5107271;28;20404;-71
2020/12/10 01:24:11;;;;;;;33.80;17.88;;;;;;;5.39;100.00;94326.25;5107648;28;20040;-71
2020/12/10 01:26:38;;;;;;;27.17;16.05;;;;;;;5.35;100.00;94327.69;5090521;28;20075;-70
2020/12/10 01:29:05;;;;;;;27.80;16.05;;;;;;;5.42;100.00;94343.91;5105973;28;20039;-71
2020/12/10 01:31:31;;;;;;;28.73;16.10;;;;;;;5.48;100.00;94343.06;5094606;28;20523;-70
2020/12/10 01:33:59;;;;;;;28.70;14.85;;;;;;;5.55;100.00;94336.03;5105594;28;20542;-70
2020/12/10 01:36:28;;;;;;;21.40;12.88;;;;;;;5.55;100.00;94328.28;5106919;28;20082;-70
2020/12/10 01:38:55;;;;;;;21.10;11.90;;;;;;;5.55;100.00;94333.47;5106771;28;20100;-70
2020/12/10 01:41:29;;;;;;;20.30;12.85;;;;;;;5.60;100.00;94324.28;5107518;28;20055;-70
2020/12/10 01:44:09;;;;;;;20.92;11.88;;;;;;;5.57;100.00;94319.56;5095169;28;20039;-69
2020/12/10 01:46:37;;;;;;;19.60;10.93;;;;;;;5.53;100.00;94314.03;5111319;28;20119;-70
2020/12/10 01:49:06;;;;;;;18.58;11.57;;;;;;;5.52;100.00;94315.78;5093537;28;20454;-70
2020/12/10 01:51:33;;;;;;;20.05;12.43;;;;;;;5.49;100.00;94313.66;5110982;28;20046;-70
2020/12/10 01:54:00;;;;;;;21.63;11.88;;;;;;;5.40;100.00;94294.22;5111258;28;20116;-69
2020/12/10 01:56:26;;;;;;;21.70;12.25;;;;;;;5.51;100.00;94306.47;5110786;28;20032;-70
2020/12/10 01:58:54;;;;;;;21.88;12.60;;;;;;;5.54;100.00;94308.63;5111297;28;20416;-71
2020/12/10 02:01:22;;;;;;;24.00;11.45;;;;;;;5.47;100.00;94305.31;5110529;28;20035;-72
2020/12/10 02:03:49;;;;;;;16.75;11.13;;;;;;;5.50;100.00;94314.44;5110294;28;20490;-70
2020/12/10 02:06:15;;;;;;;24.30;12.98;;;;;;;5.52;100.00;94315.78;5110779;28;20071;-71
2020/12/10 02:08:42;;;;;;;21.42;11.38;;;;;;;5.42;100.00;94300.00;5099771;28;20035;-70
2020/12/10 02:11:10;;;;;;;22.25;12.55;;;;;;;5.41;100.00;94295.81;5109959;28;20469;-69
2020/12/10 02:13:37;;;;;;;20.67;11.65;;;;;;;5.36;100.00;94293.09;5094070;28;20046;-69
2020/12/10 02:16:05;;;;;;;21.77;12.73;;;;;;;5.37;100.00;94305.00;5098114;28;20039;-70
2020/12/10 02:18:31;;;;;;;22.65;12.07;;;;;;;5.40;100.00;94320.06;5098083;28;20040;-70
2020/12/10 02:20:58;;;;;;;22.80;12.60;;;;;;;5.48;100.00;94332.72;5110919;28;20040;-71
2020/12/10 02:23:24;;;;;;;22.00;12.63;;;;;;;5.50;100.00;94320.38;5111075;28;20043;-71
2020/12/10 02:25:51;;;;;;;22.38;12.20;;;;;;;5.46;100.00;94314.06;5110653;28;20047;-70
2020/12/10 02:28:18;;;;;;;18.60;11.93;;;;;;;5.58;100.00;94308.22;5110729;28;20419;-71
2020/12/10 02:30:47;;;;;;;23.27;11.80;;;;;;;5.55;100.00;94309.44;5110246;28;20040;-71
2020/12/10 02:33:14;;;;;;;21.50;12.10;;;;;;;5.55;100.00;94301.69;5108844;28;20445;-70
2020/12/10 02:35:42;;;;;;;22.75;12.85;;;;;;;5.53;100.00;94278.63;5109194;28;20043;-71
2020/12/10 02:38:10;;;;;;;17.58;11.35;;;;;;;5.54;100.00;94279.41;5110162;28;20047;-70
2020/12/10 02:40:41;;;;;;;21.38;11.27;;;;;;;5.51;100.00;94278.06;5109992;28;20040;-70
2020/12/10 02:43:10;;;;;;;16.65;10.40;;;;;;;5.51;100.00;94285.81;5105710;28;20047;-70
2020/12/10 02:45:38;;;;;;;21.10;11.05;;;;;;;5.44;100.00;94259.25;5108698;28;20153;-70
2020/12/10 02:48:06;;;;;;;19.98;11.07;;;;;;;5.47;100.00;94263.97;5109771;28;20040;-70
2020/12/10 02:50:32;;;;;;;17.55;11.27;;;;;;;5.49;100.00;94251.66;5109990;28;20138;-71
2020/12/10 02:52:58;;;;;;;22.65;11.32;;;;;;;5.50;100.00;94258.41;5094004;28;20054;-70
2020/12/10 02:55:25;;;;;;;18.65;11.52;;;;;;;5.38;100.00;94252.34;5096970;28;20069;-70
2020/12/10 02:57:51;;;;;;;19.35;12.25;;;;;;;5.37;100.00;94261.09;5110434;28;20040;-71
2020/12/10 03:00:17;;;;;;;24.30;13.68;;;;;;;5.13;100.00;94237.66;5094504;28;20058;-71
2020/12/10 03:02:43;;;;;;;26.05;15.07;;;;;;;5.15;100.00;94246.00;5106307;28;20035;-70
2020/12/10 03:05:10;;;;;;;27.10;15.20;;;;;;;5.02;100.00;94246.06;5109533;28;20044;-71
2020/12/10 03:07:36;;;;;;;28.25;15.55;;;;;;;4.94;100.00;94238.63;5090234;28;20031;-71
2020/12/10 03:10:04;;;;;;;27.98;15.93;;;;;;;4.82;100.00;94229.97;5109479;28;20135;-71
2020/12/10 03:12:31;;;;;;;38.63;17.15;;;;;;;4.68;100.00;94245.53;5109788;28;20050;-71
2020/12/10 03:14:58;;;;;;;28.38;16.13;;;;;;;4.65;100.00;94238.22;5108936;28;20411;-71
2020/12/10 03:17:27;;;;;;;29.75;16.55;;;;;;;4.69;100.00;94249.69;5109826;28;20040;-70
2020/12/10 03:19:54;;;;;;;30.70;17.20;;;;;;;4.64;100.00;94238.41;5092549;28;20119;-70
2020/12/10 03:22:21;;;;;;;38.20;17.73;;;;;;;4.74;100.00;94260.19;5109572;28;20500;-71
2020/12/10 03:24:48;;;;;;;33.72;18.30;;;;;;;4.79;100.00;94255.19;5109714;28;20036;-71
2020/12/10 03:27:14;;;;;;;35.78;19.08;;;;;;;4.88;100.00;94245.41;5109303;28;20036;-70
2020/12/10 03:29:40;;;;;;;35.00;18.67;;;;;;;5.00;100.00;94258.41;5109215;28;20043;-70
2020/12/10 03:32:07;;;;;;;39.42;19.63;;;;;;;5.06;100.00;94278.22;5100036;28;20047;-70
2020/12/10 03:34:34;;;;;;;33.95;18.35;;;;;;;5.17;100.00;94272.38;5107732;28;20039;-70
2020/12/10 03:37:01;;;;;;;33.60;17.20;;;;;;;5.29;100.00;94256.19;5108396;28;20040;-70
2020/12/10 03:39:29;;;;;;;31.45;17.45;;;;;;;5.35;100.00;94245.03;5109468;28;20509;-70
2020/12/10 03:41:58;;;;;;;28.27;16.73;;;;;;;5.46;100.00;94252.09;5109014;28;20062;-70
2020/12/10 03:44:25;;;;;;;31.17;16.52;;;;;;;5.38;100.00;94246.41;5108942;28;20509;-71
2020/12/10 03:46:52;;;;;;;29.10;16.17;;;;;;;5.50;100.00;94263.56;5109135;28;20532;-71
2020/12/10 03:49:19;;;;;;;33.40;16.25;;;;;;;5.56;100.00;94236.09;5108755;28;20043;-71
2020/12/10 03:51:45;;;;;;;29.05;15.85;;;;;;;5.62;100.00;94255.09;5108983;28;20170;-70
2020/12/10 03:54:12;;;;;;;27.33;15.98;;;;;;;5.54;100.00;94244.03;5108687;28;20038;-70
2020/12/10 03:56:38;;;;;;;27.83;16.30;;;;;;;5.58;100.00;94243.63;5090401;28;20618;-70
2020/12/10 03:59:06;;;;;;;23.88;14.32;;;;;;;5.61;100.00;94243.19;5108368;28;20057;-70
2020/12/10 04:01:33;;;;;;;25.52;14.80;;;;;;;5.83;100.00;94252.09;5108348;28;20046;-71
2020/12/10 04:04:00;;;;;;;29.67;14.50;;;;;;;5.94;100.00;94250.59;5108478;28;20039;-70
2020/12/10 04:06:27;;;;;;;19.88;12.35;;;;;;;6.04;100.00;94263.06;5107527;28;20043;-70
2020/12/10 04:08:54;;;;;;;23.10;13.70;;;;;;;5.99;100.00;94265.50;5107829;28;20486;-70
2020/12/10 04:11:20;;;;;;;23.30;14.00;;;;;;;6.09;100.00;94284.66;5107110;28;20520;-71
2020/12/10 04:13:47;;;;;;;22.75;13.80;;;;;;;6.05;100.00;94264.63;5107529;28;20040;-70
2020/12/10 04:16:14;;;;;;;22.05;13.45;;;;;;;6.16;100.00;94266.50;5108661;28;20050;-71
2020/12/10 04:18:41;;;;;;;27.48;16.65;;;;;;;6.20;100.00;94272.03;5108002;28;20118;-71
2020/12/10 04:21:09;;;;;;;30.05;21.55;;;;;;;6.25;100.00;94265.19;5108422;28;20044;-71
2020/12/10 04:23:37;;;;;;;22.65;13.23;;;;;;;6.34;100.00;94264.88;5108085;28;20040;-70
2020/12/10 04:26:03;;;;;;;21.25;12.35;;;;;;;6.37;100.00;94264.47;5107858;28;20088;-71
2020/12/10 04:28:29;;;;;;;21.08;13.02;;;;;;;6.40;100.00;94266.63;5108366;28;20046;-71
2020/12/10 04:30:56;;;;;;;25.13;14.88;;;;;;;6.25;99.48;94291.06;5107727;28;20503;-71
2020/12/10 04:33:23;;;;;;;22.38;14.40;;;;;;;6.00;100.00;94295.53;5106266;28;20042;-70
2020/12/10 04:35:50;;;;;;;21.05;13.40;;;;;;;6.12;100.00;94291.19;5107470;28;20043;-70
2020/12/10 04:38:16;;;;;;;27.60;15.32;;;;;;;6.26;100.00;94307.38;5091644;28;20046;-70
2020/12/10 04:40:43;;;;;;;22.48;14.82;;;;;;;6.32;100.00;94302.13;5107738;28;20042;-70
2020/12/10 04:43:11;;;;;;;31.52;17.92;;;;;;;6.38;100.00;94287.53;5089537;28;20119;-71
2020/12/10 04:45:37;;;;;;;25.23;17.17;;;;;;;6.40;100.00;94289.91;5107411;28;20070;-70
2020/12/10 04:48:04;;;;;;;26.17;17.30;;;;;;;6.43;99.79;94297.22;5107510;27;20035;-70
2020/12/10 04:50:34;;;;;;;25.40;17.30;;;;;;;6.41;100.00;94291.47;5107556;28;20114;-70
2020/12/10 04:53:02;;;;;;;25.67;16.95;;;;;;;6.44;99.69;94293.63;5096804;28;20140;-71
2020/12/10 04:55:28;;;;;;;21.70;14.85;;;;;;;6.40;100.00;94300.25;5089179;28;20527;-71
2020/12/10 04:57:57;;;;;;;22.98;14.52;;;;;;;6.34;100.00;94303.69;5107686;28;20043;-70
2020/12/10 05:00:24;;;;;;;27.30;14.73;;;;;;;6.28;100.00;94305.34;5107133;28;20031;-70
2020/12/10 05:02:51;;;;;;;23.88;14.02;;;;;;;6.39;100.00;94306.41;5094807;28;20048;-71
2020/12/10 05:05:26;;;;;;;28.13;13.98;;;;;;;6.39;100.00;94291.72;5107112;28;20066;-71
2020/12/10 05:07:56;;;;;;;25.15;15.65;;;;;;;6.05;100.00;94287.91;5105476;28;20115;-71
2020/12/10 05:10:23;;;;;;;26.85;16.25;;;;;;;6.03;100.00;94276.97;5107487;28;20043;-71
2020/12/10 05:12:49;;;;;;;30.60;17.38;;;;;;;5.86;100.00;94287.88;5106594;28;20499;-71
2020/12/10 05:15:37;;;;;;;24.92;15.68;;;;;;;5.88;100.00;94275.50;5107247;28;20066;-70
2020/12/10 05:18:11;;;;;;;32.95;18.00;;;;;;;5.64;100.00;94295.25;5105957;28;20039;-70
2020/12/10 05:20:54;;;;;;;34.00;18.17;;;;;;;5.48;100.00;94301.72;5125009;27;20103;-71
2020/12/10 05:23:31;;;;;;;33.38;19.23;;;;;;;5.44;100.00;94300.59;5105609;28;20048;-70
2020/12/10 05:26:01;;;;;;;31.15;18.15;;;;;;;5.33;100.00;94293.50;5093259;28;20062;-71
2020/12/10 05:28:41;;;;;;;34.60;19.48;;;;;;;5.36;100.00;94287.91;5105456;28;20039;-70
2020/12/10 05:31:15;;;;;;;31.42;17.98;;;;;;;5.34;100.00;94279.59;5090929;28;20047;-70
2020/12/10 05:34:01;;;;;;;31.15;17.08;;;;;;;5.45;100.00;94283.28;5103511;28;20059;-70
2020/12/10 05:36:29;;;;;;;41.63;23.67;;;;;;;5.44;100.00;94274.75;5123826;27;20078;-70
2020/12/10 05:39:00;;;;;;;62.50;36.38;;;;;;;5.48;100.00;94282.88;5106329;28;20044;-70
2020/12/10 05:41:26;;;;;;;46.63;25.30;;;;;;;5.51;100.00;94280.66;5105555;28;20032;-70
2020/12/10 05:43:54;;;;;;;33.55;17.33;;;;;;;5.52;100.00;94274.47;5073060;28;20507;-70
2020/12/10 05:46:25;;;;;;;41.63;26.38;;;;;;;5.54;100.00;94269.09;5106041;28;20396;-70
2020/12/10 05:48:52;;;;;;;76.90;45.83;;;;;;;5.53;100.00;94281.22;5081343;28;20036;-70
2020/12/10 05:51:23;;;;;;;65.30;35.58;;;;;;;5.65;100.00;94275.34;5105874;28;20039;-70
2020/12/10 05:53:50;;;;;;;41.33;25.00;;;;;;;5.83;100.00;94277.16;5105877;28;20040;-72
2020/12/10 05:56:18;;;;;;;28.83;18.00;;;;;;;5.93;100.00;94280.84;5106597;28;20075;-71
2020/12/10 05:58:48;;;;;;;26.42;17.20;;;;;;;6.03;100.00;94292.50;5106741;28;20036;-70
2020/12/10 06:01:30;;;;;;;39.25;24.60;;;;;;;5.98;100.00;94284.59;5106124;28;20492;-71
2020/12/10 06:03:57;;;;;;;37.08;22.38;;;;;;;6.04;100.00;94289.69;5096582;28;20055;-70
2020/12/10 06:06:29;;;;;;;34.10;20.67;;;;;;;6.19;100.00;94299.66;5088544;28;20051;-70
2020/12/10 06:09:04;;;;;;;38.60;26.52;;;;;;;6.25;100.00;94296.22;5088877;28;20032;-70
2020/12/10 06:11:32;;;;;;;57.28;33.33;;;;;;;6.22;100.00;94294.06;5087591;28;20095;-70
2020/12/10 06:14:06;;;;;;;64.22;38.00;;;;;;;6.22;100.00;94285.53;5104417;28;20118;-70
2020/12/10 06:16:36;;;;;;;195.48;113.90;;;;;;;5.88;100.00;94291.03;5090508;28;20051;-70
2020/12/10 06:19:10;;;;;;;275.13;178.82;;;;;;;5.78;100.00;94295.91;5105729;28;20032;-70
2020/12/10 06:21:44;;;;;;;133.68;84.28;;;;;;;5.83;100.00;94303.78;5090722;28;20124;-70
2020/12/10 06:24:26;;;;;;;;;;;;;;;5.93;100.00;94304.09;5107153;28;20051;-70
2020/12/10 06:26:53;;;;;;;67.97;34.38;;;;;;;5.95;100.00;94306.47;5105495;28;19932;-70
2020/12/10 06:29:30;;;;;;;60.40;30.67;;;;;;;5.99;100.00;94306.88;5108582;28;20466;-69
2020/12/10 06:32:10;;;;;;;52.05;26.85;;;;;;;5.98;100.00;94315.59;5109936;28;20067;-70
2020/12/10 06:34:44;;;;;;;54.67;31.38;;;;;;;5.90;100.00;94314.06;5109234;28;20043;-70
2020/12/10 06:37:30;;;;;;;56.03;35.50;;;;;;;5.66;100.00;94318.28;5093793;28;20082;-70
2020/12/10 06:40:03;;;;;;;84.15;40.35;;;;;;;5.58;100.00;94326.28;5110291;28;20040;-70
2020/12/10 06:42:47;;;;;;;65.45;34.28;;;;;;;5.63;100.00;94340.16;5094896;28;20120;-70
2020/12/10 06:45:32;;;;;;;77.67;38.80;;;;;;;5.61;100.00;94346.53;5110484;27;20036;-71
2020/12/10 06:48:04;;;;;;;86.93;45.63;;;;;;;5.48;100.00;94342.28;5097667;28;20473;-69
2020/12/10 06:50:33;;;;;;;75.10;37.65;;;;;;;5.55;100.00;94346.38;5109998;28;20522;-71
2020/12/10 06:53:22;;;;;;;64.57;40.08;;;;;;;5.66;100.00;94349.28;5109522;28;20031;-71
2020/12/10 06:55:56;;;;;;;124.20;70.32;;;;;;;5.73;100.00;94339.69;5093151;28;20582;-71
2020/12/10 06:58:44;;;;;;;111.78;72.10;;;;;;;5.83;100.00;94331.44;5109445;28;20059;-70
2020/12/10 07:01:29;;;;;;;67.28;47.83;;;;;;;5.88;100.00;94337.53;5086647;28;20505;-69
2020/12/10 07:04:19;;;;;;;56.25;35.42;;;;;;;5.92;100.00;94343.88;5091000;28;20031;-70
2020/12/10 07:06:47;;;;;;;44.50;25.85;;;;;;;5.93;100.00;94340.28;5091841;28;20505;-69
2020/12/10 07:09:14;;;;;;;39.08;25.00;;;;;;;6.03;100.00;94336.44;5109955;28;20097;-70
2020/12/10 07:11:43;;;;;;;43.67;26.33;;;;;;;6.09;100.00;94338.19;5099410;28;20044;-71
2020/12/10 07:14:26;;;;;;;46.78;28.70;;;;;;;6.09;100.00;94333.78;5109808;28;20118;-71
2020/12/10 07:16:56;;;;;;;159.18;82.80;;;;;;;6.15;100.00;94329.56;5109891;28;20036;-71
2020/12/10 07:19:24;;;;;;;99.53;54.03;;;;;;;6.13;100.00;94308.31;5109727;28;20046;-70
2020/12/10 07:21:50;;;;;;;108.18;56.50;;;;;;;6.27;100.00;94327.84;5109504;28;20553;-71
2020/12/10 07:24:17;;;;;;;71.05;43.80;;;;;;;6.34;100.00;94329.56;5093497;28;20044;-70
2020/12/10 07:26:44;;;;;;;52.47;28.52;;;;;;;6.45;100.00;94326.25;5108527;28;20089;-69
2020/12/10 07:29:11;;;;;;;51.88;32.95;;;;;;;6.48;100.00;94336.16;5109214;28;20053;-70
2020/12/10 07:31:38;;;;;;;55.40;32.45;;;;;;;6.63;100.00;94352.09;5109088;28;20046;-69
2020/12/10 07:34:04;;;;;;;66.90;36.30;;;;;;;6.70;100.00;94349.44;5107864;28;22019;-69
2020/12/10 07:36:32;;;;;;;115.78;51.67;;;;;;;6.77;100.00;94350.16;5107858;28;20531;-70
2020/12/10 07:38:58;;;;;;;88.90;48.70;;;;;;;6.81;100.00;94334.97;5075081;28;20500;-70
2020/12/10 07:41:25;;;;;;;96.13;48.10;;;;;;;6.80;100.00;94333.38;5095384;28;20131;-69
2020/12/10 07:43:53;;;;;;;88.55;47.33;;;;;;;6.52;100.00;94332.16;5109370;28;20058;-69
2020/12/10 07:46:20;;;;;;;105.03;59.05;;;;;;;6.61;100.00;94324.84;5090268;28;20067;-69
2020/12/10 07:48:48;;;;;;;98.53;54.78;;;;;;;6.63;100.00;94326.22;5093345;28;20227;-69
2020/12/10 07:51:20;;;;;;;94.70;53.97;;;;;;;6.70;100.00;94334.69;5108430;28;20040;-71
2020/12/10 07:53:47;;;;;;;89.07;48.05;;;;;;;6.80;100.00;94330.78;5109377;28;20051;-70
2020/12/10 07:56:21;;;;;;;84.97;47.22;;;;;;;6.83;100.00;94322.59;5108513;28;20047;-70
2020/12/10 07:59:08;;;;;;;85.13;44.38;;;;;;;6.88;100.00;94331.28;5087495;28;20412;-71
2020/12/10 08:01:43;;;;;;;72.50;39.85;;;;;;;7.07;100.00;94328.63;5107662;28;20043;-71
2020/12/10 08:04:17;;;;;;;71.68;38.67;;;;;;;7.20;100.00;94332.84;5108269;28;20059;-71
2020/12/10 08:06:45;;;;;;;77.75;43.50;;;;;;;7.34;100.00;94323.84;5128427;27;20044;-69
2020/12/10 08:09:12;;;;;;;86.90;51.63;;;;;;;7.46;100.00;94324.66;5092779;28;20028;-70
2020/12/10 08:11:53;;;;;;;90.10;52.83;;;;;;;7.42;100.00;94320.94;5108127;28;20036;-70
2020/12/10 08:14:50;;;;;;;65.55;38.40;;;;;;;7.47;100.00;94341.81;5107125;28;20572;-72
2020/12/10 08:17:20;;;;;;;62.15;34.83;;;;;;;7.61;100.00;94344.19;5107051;28;20058;-70
2020/12/10 08:19:55;;;;;;;99.47;52.20;;;;;;;7.69;100.00;94330.09;5106936;28;20550;-70
2020/12/10 08:22:23;;;;;;;145.57;75.85;;;;;;;7.84;99.54;94344.19;5093808;28;20047;-70
2020/12/10 08:24:50;;;;;;;228.30;95.00;;;;;;;7.90;99.38;94352.09;5107128;28;20032;-70
2020/12/10 08:27:18;;;;;;;172.70;78.28;;;;;;;7.90;99.16;94346.91;5107246;28;20488;-70
2020/12/10 08:30:00;;;;;;;366.85;152.25;;;;;;;8.02;98.28;94347.69;5106681;28;20397;-71
2020/12/10 08:32:26;;;;;;;368.42;143.10;;;;;;;8.04;98.09;94335.28;5107062;28;20465;-71
2020/12/10 08:35:05;;;;;;;821.55;336.92;;;;;;;8.12;97.94;94334.94;5105422;28;20036;-71
2020/12/10 08:37:41;;;;;;;999.63;410.27;;;;;;;8.14;97.86;94335.50;5104461;28;20058;-71
2020/12/10 08:40:09;;;;;;;576.65;217.60;;;;;;;8.01;98.06;94325.34;5105241;28;20036;-70
2020/12/10 08:42:36;;;;;;;397.58;140.25;;;;;;;8.17;97.96;94342.81;5105564;28;20059;-71
2020/12/10 08:45:04;;;;;;;415.38;143.70;;;;;;;8.11;97.81;94335.97;5105218;28;20036;-70
2020/12/10 08:47:35;;;;;;;342.35;122.43;;;;;;;8.27;97.40;94338.88;5105972;28;20121;-70
2020/12/10 08:50:28;;;;;;;175.27;66.57;;;;;;;8.39;96.85;94339.63;5106274;28;20040;-71
2020/12/10 08:52:58;;;;;;;140.30;57.75;;;;;;;8.44;96.24;94342.34;5106535;27;20093;-70
2020/12/10 08:55:26;;;;;;;71.15;32.83;;;;;;;8.48;95.45;94322.75;5107720;28;20047;-70
2020/12/10 08:57:53;;;;;;;134.85;54.60;;;;;;;8.55;95.39;94320.81;5107843;28;20040;-71
2020/12/10 09:00:19;;;;;;;71.53;34.88;;;;;;;8.60;95.30;94297.50;5106815;28;20039;-70
2020/12/10 09:02:45;;;;;;;47.95;24.98;;;;;;;8.74;95.32;94294.66;5089162;28;20234;-71
2020/12/10 09:05:12;;;;;;;64.55;34.42;;;;;;;8.80;94.96;94301.50;5106655;28;20475;-71
2020/12/10 09:07:38;;;;;;;83.68;41.92;;;;;;;8.81;94.48;94290.13;5107407;28;20037;-72
2020/12/10 09:10:06;;;;;;;122.93;63.85;;;;;;;8.94;94.47;94283.84;5088730;28;20074;-69
2020/12/10 09:12:33;;;;;;;140.95;60.05;;;;;;;8.99;94.08;94292.50;5105493;28;20035;-71
2020/12/10 09:14:59;;;;;;;86.82;42.00;;;;;;;9.02;94.53;94295.66;5107406;28;20039;-70
2020/12/10 09:17:27;;;;;;;47.85;28.73;;;;;;;9.07;94.14;94300.94;5100800;28;20057;-70
2020/12/10 09:19:54;;;;;;;51.08;29.88;;;;;;;9.12;93.68;94295.84;5107576;28;20036;-70
2020/12/10 09:22:20;;;;;;;54.30;31.27;;;;;;;9.19;93.47;94293.88;5107225;28;20040;-70
2020/12/10 09:24:47;;;;;;;58.35;32.72;;;;;;;9.07;93.37;94288.72;5107491;28;20048;-70
2020/12/10 09:27:18;;;;;;;59.85;33.17;;;;;;;8.97;93.70;94293.78;5107658;28;20488;-71
2020/12/10 09:29:44;;;;;;;64.05;36.03;;;;;;;8.97;93.54;94289.34;5082776;28;20039;-70
2020/12/10 09:32:11;;;;;;;63.30;39.53;;;;;;;8.93;93.83;94283.06;5106924;28;20063;-71
2020/12/10 09:34:37;;;;;;;73.47;43.95;;;;;;;9.12;93.31;94290.63;5097051;28;20044;-71
2020/12/10 09:37:04;;;;;;;56.47;34.47;;;;;;;9.06;92.75;94263.00;5105503;28;20044;-70
2020/12/10 09:39:32;;;;;;;52.50;32.67;;;;;;;9.13;92.74;94271.44;5091058;28;20511;-71
2020/12/10 09:42:00;;;;;;;54.40;33.80;;;;;;;8.95;92.87;94275.03;5106494;28;20035;-70
2020/12/10 09:44:27;;;;;;;63.00;35.80;;;;;;;8.91;93.55;94279.91;5105958;28;20466;-71
2020/12/10 09:46:53;;;;;;;84.07;45.70;;;;;;;9.03;93.94;94281.66;5107471;28;20040;-71
2020/12/10 09:49:20;;;;;;;141.68;58.83;;;;;;;9.19;93.22;94281.66;5098302;28;20088;-71
2020/12/10 09:51:54;;;;;;;74.30;43.58;;;;;;;9.33;92.58;94287.34;5095033;28;20039;-71
2020/12/10 10:16:37;;;;;;;106.20;48.30;;;;;;;9.52;90.43;94281.91;5101508;27;20542;-74
2020/12/10 10:19:04;;;;;;;90.13;45.58;;;;;;;9.40;90.56;94270.78;5083427;28;20472;-74
2020/12/10 10:21:30;;;;;;;55.55;32.47;;;;;;;9.38;90.80;94268.44;5081520;28;20043;-74
2020/12/10 10:23:57;;;;;;;68.63;36.67;;;;;;;9.27;91.98;94254.50;5082751;28;20035;-74
2020/12/10 10:26:24;;;;;;;49.85;29.55;;;;;;;9.40;92.03;94265.59;5082476;28;20059;-74
2020/12/10 10:28:52;;;;;;;48.92;30.33;;;;;;;9.34;92.64;94256.94;5081886;28;20082;-75
2020/12/10 10:31:19;;;;;;;41.13;26.58;;;;;;;9.29;92.42;94249.88;5082137;28;20047;-75
2020/12/10 10:33:46;;;;;;;49.42;30.17;;;;;;;9.41;92.78;94251.59;5083687;28;20105;-75
2020/12/10 10:36:14;;;;;;;62.53;33.88;;;;;;;9.38;93.44;94243.25;5082528;28;20412;-74
2020/12/10 10:38:41;;;;;;;64.43;36.90;;;;;;;9.37;93.04;94244.25;5083293;28;20115;-75
2020/12/10 10:41:07;;;;;;;61.47;36.58;;;;;;;9.46;93.59;94246.47;5083043;28;20044;-75
2020/12/10 10:43:35;;;;;;;45.38;26.98;;;;;;;9.43;93.28;94244.34;5083390;28;20048;-74
2020/12/10 10:46:02;;;;;;;46.88;24.85;;;;;;;9.42;92.41;94251.34;5082628;28;20127;-74
2020/12/10 10:48:29;;;;;;;45.13;25.25;;;;;;;9.31;92.95;94245.22;5082286;28;20050;-75
2020/12/10 10:50:55;;;;;;;64.90;33.78;;;;;;;9.14;93.06;94236.63;5082018;28;20040;-74
2020/12/10 10:53:22;;;;;;;63.53;34.25;;;;;;;9.29;93.44;94255.06;5082555;28;20040;-74
2020/12/10 10:55:49;;;;;;;56.45;31.67;;;;;;;9.34;93.63;94252.53;5083162;28;20497;-74
2020/12/10 10:58:16;;;;;;;91.40;57.35;;;;;;;9.54;93.22;94261.66;5047976;28;20044;-74
2020/12/10 11:00:48;;;;;;;109.90;70.55;;;;;;;9.61;92.37;94246.69;5084085;28;20036;-74
2020/12/10 11:03:15;;;;;;;84.28;55.45;;;;;;;9.70;92.16;94258.25;5065212;28;20427;-73
2020/12/10 11:05:44;;;;;;;94.97;57.35;;;;;;;9.73;91.65;94249.97;5084274;28;20132;-74
2020/12/10 11:08:10;;;;;;;144.95;65.03;;;;;;;9.67;92.33;94229.34;5081463;28;20064;-74
2020/12/10 11:10:36;;;;;;;68.65;42.65;;;;;;;9.74;91.94;94232.56;5082734;28;20055;-73
2020/12/10 11:13:03;;;;;;;106.72;53.92;;;;;;;9.75;91.37;94227.09;5083049;28;20042;-74
2020/12/10 11:15:31;;;;;;;81.88;44.47;;;;;;;9.83;91.21;94235.53;5081341;28;20521;-74
2020/12/10 11:17:58;;;;;;;65.95;41.22;;;;;;;9.89;90.74;94231.97;5051389;28;20048;-73
2020/12/10 11:20:24;;;;;;;66.55;36.67;;;;;;;9.90;91.19;94239.56;5070724;28;20056;-74
2020/12/10 11:22:51;;;;;;;55.70;32.92;;;;;;;9.87;91.55;94214.00;5069763;28;20036;-74
2020/12/10 11:25:17;;;;;;;42.38;27.25;;;;;;;9.87;91.13;94208.81;5070721;28;20589;-74
2020/12/10 11:27:44;;;;;;;36.67;23.65;;;;;;;10.01;90.64;94217.06;5052366;28;20054;-74
2020/12/10 11:30:10;;;;;;;44.17;27.27;;;;;;;10.08;90.80;94211.66;5070147;28;20045;-74
2020/12/10 11:32:36;;;;;;;39.90;24.85;;;;;;;10.11;90.91;94209.34;5070201;28;20470;-73
2020/12/10 11:54:20;;;;;;;54.38;35.83;;;;;;;11.00;86.76;94204.00;5125135;27;21248;-68
2020/12/10 11:56:54;;;;;;;51.72;33.55;;;;;;;10.95;86.97;94190.91;5124067;28;20096;-72
2020/12/10 11:59:21;;;;;;;53.63;33.55;;;;;;;10.88;86.89;94197.13;5125358;27;20050;-72
2020/12/10 12:01:47;;;;;;;60.17;36.58;;;;;;;10.82;86.68;94208.56;5125300;28;20054;-71
2020/12/10 12:04:14;;;;;;;54.10;31.55;;;;;;;10.81;88.01;94200.97;5123467;28;20055;-71
2020/12/10 12:06:40;;;;;;;65.90;32.75;;;;;;;10.73;88.04;94183.97;5123750;27;20391;-71
2020/12/10 12:09:07;;;;;;;56.47;31.60;;;;;;;10.72;88.13;94192.81;5124122;28;20036;-72